sensor_id;sensor_type;location;lat;lon;timestamp;temperature;humidity
59313;DHT22;45084;51.486;7.366;2023-12-04T00:01:49;0.40;99.90
59313;DHT22;45084;51.486;7.366;2023-12-04T00:04:14;0.40;99.90
59313;DHT22;45084;51.486;7.366;2023-12-04T00:06:43;0.50;99.90
59313;DHT22;45084;51.486;7.366;2023-12-04T00:09:09;0.40;99.90
59313;DHT22;45084;51.486;7.366;2023-12-04T00:11:34;0.40;99.90
59313;DHT22;45084;51.486;7.366;2023-12-04T00:14:00;0.40;99.90
59313;DHT22;45084;51.486;7.366;2023-12-04T00:16:26;0.40;99.90
59313;DHT22;45084;51.486;7.366;2023-12-04T00:18:51;0.40;99.90
59313;DHT22;45084;51.486;7.366;2023-12-04T00:21:17;0.40;99.90
59313;DHT22;45084;51.486;7.366;2023-12-04T00:23:42;0.40;99.90
59313;DHT22;45084;51.486;7.366;2023-12-04T00:26:08;0.30;99.90
59313;DHT22;45084;51.486;7.366;2023-12-04T00:28:37;0.30;99.90
59313;DHT22;45084;51.486;7.366;2023-12-04T00:31:02;0.30;99.90
59313;DHT22;45084;51.486;7.366;2023-12-04T00:33:28;0.30;99.90
59313;DHT22;45084;51.486;7.366;2023-12-04T00:35:54;0.30;99.90
59313;DHT22;45084;51.486;7.366;2023-12-04T00:38:22;0.40;99.90
59313;DHT22;45084;51.486;7.366;2023-12-04T00:40:48;0.40;99.90
59313;DHT22;45084;51.486;7.366;2023-12-04T00:43:13;0.50;99.90
59313;DHT22;45084;51.486;7.366;2023-12-04T00:45:39;0.40;99.90
59313;DHT22;45084;51.486;7.366;2023-12-04T00:48:05;0.40;99.90
59313;DHT22;45084;51.486;7.366;2023-12-04T00:50:30;0.40;99.90
59313;DHT22;45084;51.486;7.366;2023-12-04T00:52:56;0.40;99.90
59313;DHT22;45084;51.486;7.366;2023-12-04T00:55:21;0.40;99.90
59313;DHT22;45084;51.486;7.366;2023-12-04T00:57:47;0.50;99.90
59313;DHT22;45084;51.486;7.366;2023-12-04T01:00:13;0.50;99.90
59313;DHT22;45084;51.486;7.366;2023-12-04T01:02:40;0.40;99.90
59313;DHT22;45084;51.486;7.366;2023-12-04T01:05:05;0.40;99.90
59313;DHT22;45084;51.486;7.366;2023-12-04T01:07:31;0.40;99.90
59313;DHT22;45084;51.486;7.366;2023-12-04T01:09:57;0.40;99.90
59313;DHT22;45084;51.486;7.366;2023-12-04T01:12:22;0.30;99.90
59313;DHT22;45084;51.486;7.366;2023-12-04T01:14:48;0.50;99.90
59313;DHT22;45084;51.486;7.366;2023-12-04T01:17:14;0.50;99.90
59313;DHT22;45084;51.486;7.366;2023-12-04T01:19:40;0.50;99.90
59313;DHT22;45084;51.486;7.366;2023-12-04T01:22:05;0.50;99.90
59313;DHT22;45084;51.486;7.366;2023-12-04T01:24:31;0.50;99.90
59313;DHT22;45084;51.486;7.366;2023-12-04T01:26:57;0.50;99.90
59313;DHT22;45084;51.486;7.366;2023-12-04T01:29:22;0.50;99.90
59313;DHT22;45084;51.486;7.366;2023-12-04T01:31:48;0.40;99.90
59313;DHT22;45084;51.486;7.366;2023-12-04T01:34:13;0.40;99.90
59313;DHT22;45084;51.486;7.366;2023-12-04T01:36:42;0.40;99.90
59313;DHT22;45084;51.486;7.366;2023-12-04T01:39:08;0.50;99.90
59313;DHT22;45084;51.486;7.366;2023-12-04T01:41:33;0.50;99.90
59313;DHT22;45084;51.486;7.366;2023-12-04T01:43:59;0.50;99.90
59313;DHT22;45084;51.486;7.366;2023-12-04T01:46:25;0.40;99.90
59313;DHT22;45084;51.486;7.366;2023-12-04T01:48:51;0.60;99.90
59313;DHT22;45084;51.486;7.366;2023-12-04T01:51:19;0.70;99.90
59313;DHT22;45084;51.486;7.366;2023-12-04T01:53:45;0.70;99.90
59313;DHT22;45084;51.486;7.366;2023-12-04T01:56:12;0.70;99.90
59313;DHT22;45084;51.486;7.366;2023-12-04T01:58:39;0.70;99.90
59313;DHT22;45084;51.486;7.366;2023-12-04T02:01:05;0.70;99.90
59313;DHT22;45084;51.486;7.366;2023-12-04T02:03:31;0.70;99.90
59313;DHT22;45084;51.486;7.366;2023-12-04T02:05:59;0.70;99.90
59313;DHT22;45084;51.486;7.366;2023-12-04T02:08:25;0.70;99.90
59313;DHT22;45084;51.486;7.366;2023-12-04T02:10:51;0.60;99.90
59313;DHT22;45084;51.486;7.366;2023-12-04T02:13:16;0.70;99.90
59313;DHT22;45084;51.486;7.366;2023-12-04T02:15:42;0.70;99.90
59313;DHT22;45084;51.486;7.366;2023-12-04T02:18:08;0.70;99.90
59313;DHT22;45084;51.486;7.366;2023-12-04T02:20:34;0.80;99.90
59313;DHT22;45084;51.486;7.366;2023-12-04T02:23:03;0.70;99.90
59313;DHT22;45084;51.486;7.366;2023-12-04T02:25:30;0.70;99.90
59313;DHT22;45084;51.486;7.366;2023-12-04T02:27:59;0.70;99.90
59313;DHT22;45084;51.486;7.366;2023-12-04T02:30:26;0.70;99.90
59313;DHT22;45084;51.486;7.366;2023-12-04T02:32:54;0.80;99.90
59313;DHT22;45084;51.486;7.366;2023-12-04T02:35:23;0.80;99.90
59313;DHT22;45084;51.486;7.366;2023-12-04T02:37:50;0.80;99.90
59313;DHT22;45084;51.486;7.366;2023-12-04T02:40:16;0.80;99.90
59313;DHT22;45084;51.486;7.366;2023-12-04T02:42:42;0.90;99.90
59313;DHT22;45084;51.486;7.366;2023-12-04T02:45:08;0.90;99.90
59313;DHT22;45084;51.486;7.366;2023-12-04T02:47:34;0.80;99.90
59313;DHT22;45084;51.486;7.366;2023-12-04T02:50:00;0.90;99.90
59313;DHT22;45084;51.486;7.366;2023-12-04T02:52:25;0.80;99.90
59313;DHT22;45084;51.486;7.366;2023-12-04T02:54:51;0.80;99.90
59313;DHT22;45084;51.486;7.366;2023-12-04T02:57:16;0.90;99.90
59313;DHT22;45084;51.486;7.366;2023-12-04T02:59:42;0.90;99.90
59313;DHT22;45084;51.486;7.366;2023-12-04T03:02:10;0.90;99.90
59313;DHT22;45084;51.486;7.366;2023-12-04T03:04:35;1.00;99.90
59313;DHT22;45084;51.486;7.366;2023-12-04T03:07:01;1.00;99.90
59313;DHT22;45084;51.486;7.366;2023-12-04T03:09:26;1.00;99.90
59313;DHT22;45084;51.486;7.366;2023-12-04T03:11:52;1.00;99.90
59313;DHT22;45084;51.486;7.366;2023-12-04T03:14:17;1.00;99.90
59313;DHT22;45084;51.486;7.366;2023-12-04T03:16:43;1.00;99.90
59313;DHT22;45084;51.486;7.366;2023-12-04T03:19:09;1.00;99.90
59313;DHT22;45084;51.486;7.366;2023-12-04T03:21:34;1.00;99.90
59313;DHT22;45084;51.486;7.366;2023-12-04T03:24:00;1.10;99.90
59313;DHT22;45084;51.486;7.366;2023-12-04T03:26:25;1.10;99.90
59313;DHT22;45084;51.486;7.366;2023-12-04T03:28:51;1.00;99.90
59313;DHT22;45084;51.486;7.366;2023-12-04T03:31:16;1.00;99.90
59313;DHT22;45084;51.486;7.366;2023-12-04T03:33:42;1.10;99.90
59313;DHT22;45084;51.486;7.366;2023-12-04T03:36:08;1.10;99.90
59313;DHT22;45084;51.486;7.366;2023-12-04T03:38:33;1.10;99.90
59313;DHT22;45084;51.486;7.366;2023-12-04T03:40:59;1.00;99.90
59313;DHT22;45084;51.486;7.366;2023-12-04T03:43:25;1.00;99.90
59313;DHT22;45084;51.486;7.366;2023-12-04T03:45:50;1.10;99.90
59313;DHT22;45084;51.486;7.366;2023-12-04T03:48:16;1.10;99.90
59313;DHT22;45084;51.486;7.366;2023-12-04T03:50:41;1.00;99.90
59313;DHT22;45084;51.486;7.366;2023-12-04T03:53:07;1.00;99.90
59313;DHT22;45084;51.486;7.366;2023-12-04T03:55:32;1.10;99.90
59313;DHT22;45084;51.486;7.366;2023-12-04T03:57:58;1.10;99.90
59313;DHT22;45084;51.486;7.366;2023-12-04T04:00:26;1.10;99.90
59313;DHT22;45084;51.486;7.366;2023-12-04T04:02:51;1.10;99.90
59313;DHT22;45084;51.486;7.366;2023-12-04T04:05:17;1.10;99.90
59313;DHT22;45084;51.486;7.366;2023-12-04T04:07:42;1.10;99.90
59313;DHT22;45084;51.486;7.366;2023-12-04T04:10:08;1.10;99.90
59313;DHT22;45084;51.486;7.366;2023-12-04T04:12:34;1.10;99.90
59313;DHT22;45084;51.486;7.366;2023-12-04T04:15:00;1.20;99.90
59313;DHT22;45084;51.486;7.366;2023-12-04T04:17:26;1.20;99.90
59313;DHT22;45084;51.486;7.366;2023-12-04T04:19:52;1.20;99.90
59313;DHT22;45084;51.486;7.366;2023-12-04T04:22:19;1.30;99.90
59313;DHT22;45084;51.486;7.366;2023-12-04T04:24:45;1.30;99.90
59313;DHT22;45084;51.486;7.366;2023-12-04T04:27:10;1.20;99.90
59313;DHT22;45084;51.486;7.366;2023-12-04T04:29:36;1.20;99.90
59313;DHT22;45084;51.486;7.366;2023-12-04T04:32:01;1.30;99.90
59313;DHT22;45084;51.486;7.366;2023-12-04T04:34:27;1.10;99.90
59313;DHT22;45084;51.486;7.366;2023-12-04T04:36:53;1.10;99.90
59313;DHT22;45084;51.486;7.366;2023-12-04T04:39:19;1.10;99.90
59313;DHT22;45084;51.486;7.366;2023-12-04T04:41:44;1.00;99.90
59313;DHT22;45084;51.486;7.366;2023-12-04T04:44:10;1.10;99.90
59313;DHT22;45084;51.486;7.366;2023-12-04T04:46:36;1.10;99.90
59313;DHT22;45084;51.486;7.366;2023-12-04T04:49:01;1.00;99.90
59313;DHT22;45084;51.486;7.366;2023-12-04T04:51:28;1.10;99.90
59313;DHT22;45084;51.486;7.366;2023-12-04T04:53:54;1.00;99.90
59313;DHT22;45084;51.486;7.366;2023-12-04T04:56:20;1.00;99.90
59313;DHT22;45084;51.486;7.366;2023-12-04T04:58:46;1.00;99.90
59313;DHT22;45084;51.486;7.366;2023-12-04T05:01:12;1.00;99.90
59313;DHT22;45084;51.486;7.366;2023-12-04T05:03:37;1.00;99.90
59313;DHT22;45084;51.486;7.366;2023-12-04T05:06:03;1.10;99.90
59313;DHT22;45084;51.486;7.366;2023-12-04T05:08:29;1.10;99.90
59313;DHT22;45084;51.486;7.366;2023-12-04T05:10:55;1.00;99.90
59313;DHT22;45084;51.486;7.366;2023-12-04T05:13:20;1.10;99.90
59313;DHT22;45084;51.486;7.366;2023-12-04T05:15:46;1.10;99.90
59313;DHT22;45084;51.486;7.366;2023-12-04T05:18:11;1.00;99.90
59313;DHT22;45084;51.486;7.366;2023-12-04T05:20:38;1.00;99.90
59313;DHT22;45084;51.486;7.366;2023-12-04T05:23:04;1.00;99.90
59313;DHT22;45084;51.486;7.366;2023-12-04T05:25:29;1.00;99.90
59313;DHT22;45084;51.486;7.366;2023-12-04T05:27:55;1.00;99.90
59313;DHT22;45084;51.486;7.366;2023-12-04T05:30:20;1.00;99.90
59313;DHT22;45084;51.486;7.366;2023-12-04T05:32:46;1.10;99.90
59313;DHT22;45084;51.486;7.366;2023-12-04T05:35:11;1.10;99.90
59313;DHT22;45084;51.486;7.366;2023-12-04T05:37:37;1.10;99.90
59313;DHT22;45084;51.486;7.366;2023-12-04T05:40:03;1.10;99.90
59313;DHT22;45084;51.486;7.366;2023-12-04T05:42:30;1.10;99.90
59313;DHT22;45084;51.486;7.366;2023-12-04T05:44:55;1.20;99.90
59313;DHT22;45084;51.486;7.366;2023-12-04T05:47:22;1.10;99.90
59313;DHT22;45084;51.486;7.366;2023-12-04T05:49:48;1.00;99.90
59313;DHT22;45084;51.486;7.366;2023-12-04T05:52:13;1.00;99.90
59313;DHT22;45084;51.486;7.366;2023-12-04T05:54:39;1.00;99.90
59313;DHT22;45084;51.486;7.366;2023-12-04T05:57:05;1.00;99.90
59313;DHT22;45084;51.486;7.366;2023-12-04T05:59:30;1.00;99.90
59313;DHT22;45084;51.486;7.366;2023-12-04T06:01:56;1.20;99.90
59313;DHT22;45084;51.486;7.366;2023-12-04T06:04:22;1.10;99.90
59313;DHT22;45084;51.486;7.366;2023-12-04T06:06:47;1.30;99.90
59313;DHT22;45084;51.486;7.366;2023-12-04T06:09:13;1.20;99.90
59313;DHT22;45084;51.486;7.366;2023-12-04T06:11:41;1.20;99.90
59313;DHT22;45084;51.486;7.366;2023-12-04T06:14:07;1.00;99.90
59313;DHT22;45084;51.486;7.366;2023-12-04T06:16:32;1.00;99.90
59313;DHT22;45084;51.486;7.366;2023-12-04T06:18:58;1.10;99.90
59313;DHT22;45084;51.486;7.366;2023-12-04T06:21:24;1.10;99.90
59313;DHT22;45084;51.486;7.366;2023-12-04T06:23:49;1.10;99.90
59313;DHT22;45084;51.486;7.366;2023-12-04T06:26:15;1.20;99.90
59313;DHT22;45084;51.486;7.366;2023-12-04T06:28:43;1.20;99.90
59313;DHT22;45084;51.486;7.366;2023-12-04T06:31:09;1.30;99.90
59313;DHT22;45084;51.486;7.366;2023-12-04T06:33:35;1.30;99.90
59313;DHT22;45084;51.486;7.366;2023-12-04T06:36:01;1.20;99.90
59313;DHT22;45084;51.486;7.366;2023-12-04T06:38:31;1.20;99.90
59313;DHT22;45084;51.486;7.366;2023-12-04T06:40:57;1.20;99.90
59313;DHT22;45084;51.486;7.366;2023-12-04T06:43:23;1.30;99.90
59313;DHT22;45084;51.486;7.366;2023-12-04T06:45:49;1.40;99.90
59313;DHT22;45084;51.486;7.366;2023-12-04T06:48:15;1.30;99.90
59313;DHT22;45084;51.486;7.366;2023-12-04T06:50:41;1.20;99.90
59313;DHT22;45084;51.486;7.366;2023-12-04T06:53:06;1.20;99.90
59313;DHT22;45084;51.486;7.366;2023-12-04T06:55:32;1.20;99.90
59313;DHT22;45084;51.486;7.366;2023-12-04T06:57:58;1.10;99.90
59313;DHT22;45084;51.486;7.366;2023-12-04T07:00:24;1.20;99.90
59313;DHT22;45084;51.486;7.366;2023-12-04T07:02:50;1.20;99.90
59313;DHT22;45084;51.486;7.366;2023-12-04T07:05:16;1.30;99.90
59313;DHT22;45084;51.486;7.366;2023-12-04T07:07:41;1.30;99.90
59313;DHT22;45084;51.486;7.366;2023-12-04T07:10:07;1.40;99.90
59313;DHT22;45084;51.486;7.366;2023-12-04T07:12:33;1.40;99.90
59313;DHT22;45084;51.486;7.366;2023-12-04T07:14:59;1.30;99.90
59313;DHT22;45084;51.486;7.366;2023-12-04T07:17:25;1.30;99.90
59313;DHT22;45084;51.486;7.366;2023-12-04T07:19:50;1.30;99.90
59313;DHT22;45084;51.486;7.366;2023-12-04T07:22:16;1.20;99.90
59313;DHT22;45084;51.486;7.366;2023-12-04T07:24:42;1.40;99.90
59313;DHT22;45084;51.486;7.366;2023-12-04T07:27:07;1.40;99.90
59313;DHT22;45084;51.486;7.366;2023-12-04T07:29:34;1.30;99.90
59313;DHT22;45084;51.486;7.366;2023-12-04T07:32:00;1.30;99.90
59313;DHT22;45084;51.486;7.366;2023-12-04T07:34:26;1.30;99.90
59313;DHT22;45084;51.486;7.366;2023-12-04T07:36:52;1.40;99.90
59313;DHT22;45084;51.486;7.366;2023-12-04T07:39:18;1.60;99.90
59313;DHT22;45084;51.486;7.366;2023-12-04T07:41:46;1.50;99.90
59313;DHT22;45084;51.486;7.366;2023-12-04T07:44:12;1.50;99.90
59313;DHT22;45084;51.486;7.366;2023-12-04T07:46:37;1.50;99.90
59313;DHT22;45084;51.486;7.366;2023-12-04T07:49:03;1.60;99.90
59313;DHT22;45084;51.486;7.366;2023-12-04T07:51:31;1.50;99.90
59313;DHT22;45084;51.486;7.366;2023-12-04T07:53:58;1.40;99.90
59313;DHT22;45084;51.486;7.366;2023-12-04T07:56:23;1.40;99.90
59313;DHT22;45084;51.486;7.366;2023-12-04T07:58:49;1.40;99.90
59313;DHT22;45084;51.486;7.366;2023-12-04T08:01:16;1.40;99.90
59313;DHT22;45084;51.486;7.366;2023-12-04T08:03:41;1.50;99.90
59313;DHT22;45084;51.486;7.366;2023-12-04T08:06:07;1.50;99.90
59313;DHT22;45084;51.486;7.366;2023-12-04T08:08:33;1.50;99.90
59313;DHT22;45084;51.486;7.366;2023-12-04T08:10:58;1.60;99.90
59313;DHT22;45084;51.486;7.366;2023-12-04T08:13:24;1.50;99.90
59313;DHT22;45084;51.486;7.366;2023-12-04T08:15:50;1.50;99.90
59313;DHT22;45084;51.486;7.366;2023-12-04T08:18:15;1.60;99.90
59313;DHT22;45084;51.486;7.366;2023-12-04T08:20:46;1.60;99.90
59313;DHT22;45084;51.486;7.366;2023-12-04T08:23:12;1.60;99.90
59313;DHT22;45084;51.486;7.366;2023-12-04T08:25:37;1.60;99.90
59313;DHT22;45084;51.486;7.366;2023-12-04T08:28:04;1.70;99.90
59313;DHT22;45084;51.486;7.366;2023-12-04T08:30:30;1.70;99.90
59313;DHT22;45084;51.486;7.366;2023-12-04T08:32:55;1.70;99.90
59313;DHT22;45084;51.486;7.366;2023-12-04T08:35:21;1.70;99.90
59313;DHT22;45084;51.486;7.366;2023-12-04T08:37:47;1.70;99.90
59313;DHT22;45084;51.486;7.366;2023-12-04T08:40:13;1.70;99.90
59313;DHT22;45084;51.486;7.366;2023-12-04T08:42:43;1.80;99.90
59313;DHT22;45084;51.486;7.366;2023-12-04T08:45:09;1.80;99.90
59313;DHT22;45084;51.486;7.366;2023-12-04T08:47:35;2.00;99.90
59313;DHT22;45084;51.486;7.366;2023-12-04T08:50:01;2.00;99.90
59313;DHT22;45084;51.486;7.366;2023-12-04T08:52:27;1.90;99.90
59313;DHT22;45084;51.486;7.366;2023-12-04T08:54:52;2.00;99.90
59313;DHT22;45084;51.486;7.366;2023-12-04T08:57:29;2.00;99.90
59313;DHT22;45084;51.486;7.366;2023-12-04T08:59:55;2.00;99.90
59313;DHT22;45084;51.486;7.366;2023-12-04T09:02:21;2.00;99.90
59313;DHT22;45084;51.486;7.366;2023-12-04T09:04:47;2.20;99.90
59313;DHT22;45084;51.486;7.366;2023-12-04T09:07:13;2.10;99.90
59313;DHT22;45084;51.486;7.366;2023-12-04T09:09:40;2.20;99.90
59313;DHT22;45084;51.486;7.366;2023-12-04T09:12:06;2.20;99.90
59313;DHT22;45084;51.486;7.366;2023-12-04T09:14:33;2.30;99.90
59313;DHT22;45084;51.486;7.366;2023-12-04T09:16:58;2.40;99.90
59313;DHT22;45084;51.486;7.366;2023-12-04T09:19:26;2.40;99.90
59313;DHT22;45084;51.486;7.366;2023-12-04T09:21:55;2.50;99.90
59313;DHT22;45084;51.486;7.366;2023-12-04T09:24:20;2.50;99.90
59313;DHT22;45084;51.486;7.366;2023-12-04T09:26:46;2.60;99.90
59313;DHT22;45084;51.486;7.366;2023-12-04T09:29:12;2.50;99.90
59313;DHT22;45084;51.486;7.366;2023-12-04T09:31:38;2.60;99.90
59313;DHT22;45084;51.486;7.366;2023-12-04T09:34:03;2.50;99.90
59313;DHT22;45084;51.486;7.366;2023-12-04T09:36:29;2.60;99.90
59313;DHT22;45084;51.486;7.366;2023-12-04T09:38:55;2.70;99.90
59313;DHT22;45084;51.486;7.366;2023-12-04T09:41:21;2.60;99.90
59313;DHT22;45084;51.486;7.366;2023-12-04T09:43:51;2.60;99.90
59313;DHT22;45084;51.486;7.366;2023-12-04T09:46:17;2.80;99.90
59313;DHT22;45084;51.486;7.366;2023-12-04T09:48:43;2.70;99.90
59313;DHT22;45084;51.486;7.366;2023-12-04T09:51:10;2.70;99.90
59313;DHT22;45084;51.486;7.366;2023-12-04T09:53:36;2.80;99.90
59313;DHT22;45084;51.486;7.366;2023-12-04T09:56:07;2.90;99.90
59313;DHT22;45084;51.486;7.366;2023-12-04T09:58:51;2.90;99.90
59313;DHT22;45084;51.486;7.366;2023-12-04T10:01:21;2.80;99.90
59313;DHT22;45084;51.486;7.366;2023-12-04T10:03:47;3.00;99.90
59313;DHT22;45084;51.486;7.366;2023-12-04T10:06:15;3.10;99.90
59313;DHT22;45084;51.486;7.366;2023-12-04T10:08:44;3.10;99.90
59313;DHT22;45084;51.486;7.366;2023-12-04T10:11:11;3.00;99.90
59313;DHT22;45084;51.486;7.366;2023-12-04T10:13:37;3.00;99.90
59313;DHT22;45084;51.486;7.366;2023-12-04T10:16:02;3.10;99.90
59313;DHT22;45084;51.486;7.366;2023-12-04T10:18:30;3.10;99.90
59313;DHT22;45084;51.486;7.366;2023-12-04T10:20:57;3.10;99.90
59313;DHT22;45084;51.486;7.366;2023-12-04T10:23:36;3.10;99.90
59313;DHT22;45084;51.486;7.366;2023-12-04T10:26:02;3.10;99.90
59313;DHT22;45084;51.486;7.366;2023-12-04T10:28:29;3.00;99.90
59313;DHT22;45084;51.486;7.366;2023-12-04T10:30:55;3.10;99.90
59313;DHT22;45084;51.486;7.366;2023-12-04T10:33:25;3.30;99.90
59313;DHT22;45084;51.486;7.366;2023-12-04T10:35:56;3.30;99.90
59313;DHT22;45084;51.486;7.366;2023-12-04T10:38:21;3.40;99.90
59313;DHT22;45084;51.486;7.366;2023-12-04T10:40:48;3.30;99.90
59313;DHT22;45084;51.486;7.366;2023-12-04T10:43:18;3.30;99.90
59313;DHT22;45084;51.486;7.366;2023-12-04T10:45:46;3.30;99.90
59313;DHT22;45084;51.486;7.366;2023-12-04T10:48:14;3.30;99.90
59313;DHT22;45084;51.486;7.366;2023-12-04T10:50:42;3.20;99.90
59313;DHT22;45084;51.486;7.366;2023-12-04T10:53:12;3.10;99.90
59313;DHT22;45084;51.486;7.366;2023-12-04T10:55:39;3.20;99.90
59313;DHT22;45084;51.486;7.366;2023-12-04T10:58:13;3.20;99.90
59313;DHT22;45084;51.486;7.366;2023-12-04T11:00:46;3.30;99.90
59313;DHT22;45084;51.486;7.366;2023-12-04T11:03:21;3.30;99.90
59313;DHT22;45084;51.486;7.366;2023-12-04T11:05:55;3.40;99.90
59313;DHT22;45084;51.486;7.366;2023-12-04T11:08:23;3.40;99.90
59313;DHT22;45084;51.486;7.366;2023-12-04T11:10:57;3.30;99.90
59313;DHT22;45084;51.486;7.366;2023-12-04T11:13:28;3.30;99.90
59313;DHT22;45084;51.486;7.366;2023-12-04T11:16:01;3.20;99.90
59313;DHT22;45084;51.486;7.366;2023-12-04T11:18:27;3.20;99.90
59313;DHT22;45084;51.486;7.366;2023-12-04T11:21:12;3.20;99.90
59313;DHT22;45084;51.486;7.366;2023-12-04T11:23:41;3.10;99.90
59313;DHT22;45084;51.486;7.366;2023-12-04T11:26:08;3.10;99.90
59313;DHT22;45084;51.486;7.366;2023-12-04T11:28:37;3.00;99.90
59313;DHT22;45084;51.486;7.366;2023-12-04T11:31:07;3.00;99.90
59313;DHT22;45084;51.486;7.366;2023-12-04T11:33:38;3.00;99.90
59313;DHT22;45084;51.486;7.366;2023-12-04T11:36:07;2.90;99.90
59313;DHT22;45084;51.486;7.366;2023-12-04T11:38:33;2.90;99.90
59313;DHT22;45084;51.486;7.366;2023-12-04T11:41:00;2.90;99.90
59313;DHT22;45084;51.486;7.366;2023-12-04T11:43:27;2.90;99.90
59313;DHT22;45084;51.486;7.366;2023-12-04T11:46:07;2.90;99.90
59313;DHT22;45084;51.486;7.366;2023-12-04T11:48:33;2.90;99.90
59313;DHT22;45084;51.486;7.366;2023-12-04T11:51:00;2.80;99.90
59313;DHT22;45084;51.486;7.366;2023-12-04T11:53:26;2.80;99.90
59313;DHT22;45084;51.486;7.366;2023-12-04T11:55:55;2.80;99.90
59313;DHT22;45084;51.486;7.366;2023-12-04T11:58:24;2.90;99.90
59313;DHT22;45084;51.486;7.366;2023-12-04T12:00:49;2.80;99.90
59313;DHT22;45084;51.486;7.366;2023-12-04T12:03:17;2.80;99.90
59313;DHT22;45084;51.486;7.366;2023-12-04T12:05:43;2.80;99.90
59313;DHT22;45084;51.486;7.366;2023-12-04T12:08:09;2.90;99.90
59313;DHT22;45084;51.486;7.366;2023-12-04T12:10:36;3.00;99.90
59313;DHT22;45084;51.486;7.366;2023-12-04T12:13:02;2.90;99.90
59313;DHT22;45084;51.486;7.366;2023-12-04T12:15:28;2.90;99.90
59313;DHT22;45084;51.486;7.366;2023-12-04T12:17:54;2.80;99.90
59313;DHT22;45084;51.486;7.366;2023-12-04T12:20:20;2.90;99.90
59313;DHT22;45084;51.486;7.366;2023-12-04T12:22:46;2.90;99.90
59313;DHT22;45084;51.486;7.366;2023-12-04T12:25:13;2.90;99.90
59313;DHT22;45084;51.486;7.366;2023-12-04T12:27:39;2.70;99.90
59313;DHT22;45084;51.486;7.366;2023-12-04T12:30:06;2.70;99.90
59313;DHT22;45084;51.486;7.366;2023-12-04T12:32:32;2.80;99.90
59313;DHT22;45084;51.486;7.366;2023-12-04T12:34:58;2.90;99.90
59313;DHT22;45084;51.486;7.366;2023-12-04T12:37:24;2.90;99.90
59313;DHT22;45084;51.486;7.366;2023-12-04T12:39:50;2.90;99.90
59313;DHT22;45084;51.486;7.366;2023-12-04T12:42:28;2.90;99.90
59313;DHT22;45084;51.486;7.366;2023-12-04T12:44:55;2.90;99.90
59313;DHT22;45084;51.486;7.366;2023-12-04T12:47:21;2.90;99.90
59313;DHT22;45084;51.486;7.366;2023-12-04T12:49:48;3.00;99.90
59313;DHT22;45084;51.486;7.366;2023-12-04T12:52:14;2.90;99.90
59313;DHT22;45084;51.486;7.366;2023-12-04T12:54:40;2.90;99.90
59313;DHT22;45084;51.486;7.366;2023-12-04T12:57:06;2.90;99.90
59313;DHT22;45084;51.486;7.366;2023-12-04T12:59:33;2.80;99.90
59313;DHT22;45084;51.486;7.366;2023-12-04T13:01:59;2.80;99.90
59313;DHT22;45084;51.486;7.366;2023-12-04T13:04:39;2.70;99.90
59313;DHT22;45084;51.486;7.366;2023-12-04T13:07:05;2.60;99.90
59313;DHT22;45084;51.486;7.366;2023-12-04T13:09:33;2.50;99.90
59313;DHT22;45084;51.486;7.366;2023-12-04T13:12:01;2.50;99.90
59313;DHT22;45084;51.486;7.366;2023-12-04T13:14:27;2.40;99.90
59313;DHT22;45084;51.486;7.366;2023-12-04T13:16:53;2.40;99.90
59313;DHT22;45084;51.486;7.366;2023-12-04T13:19:20;2.40;99.90
59313;DHT22;45084;51.486;7.366;2023-12-04T13:21:46;2.30;99.90
59313;DHT22;45084;51.486;7.366;2023-12-04T13:24:12;2.30;99.90
59313;DHT22;45084;51.486;7.366;2023-12-04T13:26:38;2.30;99.90
59313;DHT22;45084;51.486;7.366;2023-12-04T13:29:04;2.30;99.90
59313;DHT22;45084;51.486;7.366;2023-12-04T13:31:32;2.30;99.90
59313;DHT22;45084;51.486;7.366;2023-12-04T13:33:57;2.20;99.90
59313;DHT22;45084;51.486;7.366;2023-12-04T13:36:23;2.20;99.90
59313;DHT22;45084;51.486;7.366;2023-12-04T13:38:49;2.30;99.90
59313;DHT22;45084;51.486;7.366;2023-12-04T13:41:15;2.20;99.90
59313;DHT22;45084;51.486;7.366;2023-12-04T13:43:59;2.30;99.90
59313;DHT22;45084;51.486;7.366;2023-12-04T13:46:26;2.30;99.90
59313;DHT22;45084;51.486;7.366;2023-12-04T13:48:58;2.30;99.90
59313;DHT22;45084;51.486;7.366;2023-12-04T13:51:24;2.30;99.90
59313;DHT22;45084;51.486;7.366;2023-12-04T13:53:51;2.40;99.90
59313;DHT22;45084;51.486;7.366;2023-12-04T13:56:21;2.40;99.90
59313;DHT22;45084;51.486;7.366;2023-12-04T13:59:02;2.50;99.90
59313;DHT22;45084;51.486;7.366;2023-12-04T14:01:30;2.60;99.90
59313;DHT22;45084;51.486;7.366;2023-12-04T14:03:57;2.60;99.90
59313;DHT22;45084;51.486;7.366;2023-12-04T14:06:28;2.60;99.90
59313;DHT22;45084;51.486;7.366;2023-12-04T14:08:53;2.60;99.90
59313;DHT22;45084;51.486;7.366;2023-12-04T14:11:19;2.60;99.90
59313;DHT22;45084;51.486;7.366;2023-12-04T14:13:44;2.60;99.90
59313;DHT22;45084;51.486;7.366;2023-12-04T14:16:10;2.70;99.90
59313;DHT22;45084;51.486;7.366;2023-12-04T14:18:36;2.70;99.90
59313;DHT22;45084;51.486;7.366;2023-12-04T14:21:02;2.80;99.90
59313;DHT22;45084;51.486;7.366;2023-12-04T14:23:28;2.70;99.90
59313;DHT22;45084;51.486;7.366;2023-12-04T14:25:53;2.70;99.90
59313;DHT22;45084;51.486;7.366;2023-12-04T14:28:19;2.70;99.90
59313;DHT22;45084;51.486;7.366;2023-12-04T14:30:45;2.70;99.90
59313;DHT22;45084;51.486;7.366;2023-12-04T14:33:11;2.70;99.90
59313;DHT22;45084;51.486;7.366;2023-12-04T14:35:36;2.60;99.90
59313;DHT22;45084;51.486;7.366;2023-12-04T14:38:05;2.60;99.90
59313;DHT22;45084;51.486;7.366;2023-12-04T14:40:31;2.50;99.90
59313;DHT22;45084;51.486;7.366;2023-12-04T14:42:57;2.50;99.90
59313;DHT22;45084;51.486;7.366;2023-12-04T14:45:23;2.50;99.90
59313;DHT22;45084;51.486;7.366;2023-12-04T14:47:48;2.40;99.90
59313;DHT22;45084;51.486;7.366;2023-12-04T14:50:16;2.30;99.90
59313;DHT22;45084;51.486;7.366;2023-12-04T14:52:45;2.30;99.90
59313;DHT22;45084;51.486;7.366;2023-12-04T14:55:17;2.30;99.90
59313;DHT22;45084;51.486;7.366;2023-12-04T14:57:48;2.40;99.90
59313;DHT22;45084;51.486;7.366;2023-12-04T15:00:32;2.30;99.90
59313;DHT22;45084;51.486;7.366;2023-12-04T15:03:17;2.30;99.90
59313;DHT22;45084;51.486;7.366;2023-12-04T15:06:17;2.40;99.90
59313;DHT22;45084;51.486;7.366;2023-12-04T15:09:21;2.40;99.90
59313;DHT22;45084;51.486;7.366;2023-12-04T15:11:52;2.30;99.90
59313;DHT22;45084;51.486;7.366;2023-12-04T15:14:36;2.30;99.90
59313;DHT22;45084;51.486;7.366;2023-12-04T15:17:23;2.40;99.90
59313;DHT22;45084;51.486;7.366;2023-12-04T15:19:58;2.30;99.90
59313;DHT22;45084;51.486;7.366;2023-12-04T15:22:55;2.30;99.90
59313;DHT22;45084;51.486;7.366;2023-12-04T15:25:21;2.30;99.90
59313;DHT22;45084;51.486;7.366;2023-12-04T15:27:46;2.30;99.90
59313;DHT22;45084;51.486;7.366;2023-12-04T15:30:12;2.30;99.90
59313;DHT22;45084;51.486;7.366;2023-12-04T15:32:38;2.30;99.90
59313;DHT22;45084;51.486;7.366;2023-12-04T15:35:05;2.30;99.90
59313;DHT22;45084;51.486;7.366;2023-12-04T15:37:31;2.40;99.90
59313;DHT22;45084;51.486;7.366;2023-12-04T15:39:56;2.30;99.90
59313;DHT22;45084;51.486;7.366;2023-12-04T15:42:22;2.40;99.90
59313;DHT22;45084;51.486;7.366;2023-12-04T15:44:47;2.30;99.90